NZQN METAR and TAF | Updated Today

NZQN METAR

Queenstown International Airport

Queenstown International Airport (NZQN) hasn't published a METAR.
We found the following current weather conditions for Lower Shotover from other sources.

Queenstown International Airport (NZQN) METAR

  • Weather conditions right now at NZQN:
  • Present conditions: Clouds
  • Clouds: Overcast clouds
  • Cloud cover: 94%
  • Wind: 335 at 5kts
  • Temperature: 11.4 celsius
  • Feels like: 10.7 celsius
  • Pressure: 1005mb
  • Humidity: 84%


Useful to know...

NZQN TAF

Queenstown International Airport

TAF NZQN 061700Z 0618/0712 VRB02KT 9999 FEW040 BKN070 BECMG 0622/0700 24012KT
Observation time: 1:33 hr. ago
Need help? Read our tutorial on how to read TAFs or read the parsed version below.

Parsed version of TAF for Queenstown International Airport (NZQN)

  • From 06 February at 18:00 UTC, to day 07 of the month at 12:00 UTC
  • Clouds: A few at 1219 meters; broken sky at 2134 meters
  • Visibility: Greater than 10 km
  • Wind: Variable at 2
  • Expected to arise soon, from 06 February at 22:00 UTC, to day 07 of the month at 00:00 UTC
  • Wind: 240 degrees at 12

Airports near NZQN

NZMF Weather
Region:

Milford Sound Airport

Not found in our database